This is the latest recevied weather packets stored in our database for station/object GW1476. If no packets are shown the sender has not sent any weather packets the latest 10 day(s).
| Time | Temp. | Humidity | Pressure | Rain* | Wind** | Luminosity | Snow |
|---|---|---|---|---|---|---|---|
| 1777140042 | 22.22° C | 79% | 1012.5 hPa | 0 mm | - | - | - |
| 1777138610 | 21.67° C | 81% | 1012.5 hPa | 0 mm | - | - | - |
| 1777132457 | 20.56° C | 89% | 1013.2 hPa | 0 mm | - | - | - |
| 1777132131 | 20.56° C | 89% | 1013.2 hPa | 0 mm | - | - | - |
| 1777131375 | 20° C | 93% | 1013.2 hPa | 0 mm | - | - | - |
| 1777129214 | 18.33° C | 98% | 1013.2 hPa | 0 mm | - | - | - |
| 1777128501 | 18.89° C | 97% | 1013.2 hPa | 0 mm | - | - | - |
| 1777127450 | 17.78° C | 98% | 1012.8 hPa | 0 mm | - | - | - |
| 1777123843 | 16.11° C | 99% | 1012.8 hPa | 0 mm | - | - | - |
| 1777123476 | 16.11° C | 98% | 1012.8 hPa | 0 mm | - | - | - |
| 1777121660 | 15.56° C | 99% | 1012.8 hPa | 0 mm | - | - | - |
| 1777112681 | 13.33° C | 99% | 1011.5 hPa | 0 mm | - | - | - |
| 1777105103 | 13.33° C | 99% | 1011.5 hPa | 0 mm | - | - | - |
| 1777104380 | 13.33° C | 99% | 1011.5 hPa | 0 mm | - | - | - |
| 1777101152 | 13.33° C | 99% | 1011.5 hPa | 0 mm | - | - | - |
| 1777098291 | 12.78° C | 99% | 1011.1 hPa | 0 mm | - | - | - |
| 1777094690 | 13.33° C | 99% | 1011.5 hPa | 0 mm | - | - | - |
| 1777092876 | 13.89° C | 99% | 1011.5 hPa | 0 mm | - | - | - |
| 1777090711 | 14.44° C | 99% | 1011.5 hPa | 0 mm | - | - | - |
| 1777080998 | 17.78° C | 85% | 1011.1 hPa | 0 mm | - | - | - |
| 1777079539 | 18.89° C | 81% | 1010.8 hPa | 0 mm | - | - | - |
| 1777074887 | 24.44° C | 60% | 1010.1 hPa | 0 mm | - | - | - |
| 1777074146 | 25.56° C | 56% | 1010.1 hPa | 0 mm | - | - | - |
| 1777072697 | 28.89° C | 50% | 1010.1 hPa | 0 mm | - | - | - |
| 1777071621 | 30° C | 42% | 1009.8 hPa | 0 mm | - | - | - |
* Rain since midnight (hover to see other rain measurements)
** Current wind speed in m/s (hover to see current wind gust speed)